Time;durP1;ratioP1;P1;durP2;ratioP2;P2;SDS_P1;SDS_P2;PMS_P1;PMS_P2;Temp;Humidity;BMP_temperature;BMP_pressure;BME280_temperature;BME280_humidity;BME280_pressure;Samples;Min_cycle;Max_cycle;Signal;HPM_P1;HPM_P2
2022/02/10 00:07:03;;;;;;;22.70;12.13;;;;;;;;;;5091999;28;20118;-59
2022/02/10 00:36:04;;;;;;;23.75;11.70;;;;;;;;;;5080690;28;20163;-59
2022/02/10 00:38:34;;;;;;;22.63;11.68;;;;;;;;;;5063018;28;20024;-58
2022/02/10 00:41:00;;;;;;;19.98;11.20;;;;;;;;;;5082949;28;20009;-55
2022/02/10 00:43:26;;;;;;;23.80;12.00;;;;;;;;;;5078720;28;20034;-60
2022/02/10 00:45:52;;;;;;;20.75;10.27;;;;;;;;;;5070825;28;20057;-58
2022/02/10 00:48:19;;;;;;;21.80;11.98;;;;;;;;;;5070989;28;20370;-60
2022/02/10 00:50:47;;;;;;;20.77;10.85;;;;;;;;;;4357537;28;10000755;-57
2022/02/10 00:55:43;;;;;;;22.60;10.90;;;;;;;;;;5074955;28;20032;-56
2022/02/10 00:58:12;;;;;;;21.02;10.98;;;;;;;;;;5074930;28;20056;-58
2022/02/10 01:14:04;;;;;;;19.38;10.25;;;;;;;;;;5074961;28;20042;-58
2022/02/10 01:30:12;;;;;;;21.98;10.13;;;8.50;99.90;;;;;;5075161;28;20054;-57
2022/02/10 01:32:38;;;;;;;22.13;10.95;;;8.50;99.90;;;;;;5074631;28;20430;-56
2022/02/10 01:35:07;;;;;;;20.40;11.00;;;8.50;99.90;;;;;;5074759;28;20499;-57
2022/02/10 01:37:35;;;;;;;22.13;11.65;;;8.50;99.90;;;;;;5075154;28;20029;-60
2022/02/10 01:40:11;;;;;;;22.70;11.73;;;8.50;99.90;;;;;;5058081;28;20395;-60
2022/02/10 02:04:21;;;;;;;22.25;10.73;;;8.40;99.90;;;;;;5074974;28;20101;-58
2022/02/10 02:06:48;;;;;;;;;;;8.40;99.90;;;;;;5075058;28;20108;-57
2022/02/10 02:09:16;;;;;;;24.23;12.63;;;8.40;99.90;;;;;;5074741;28;19910;-59
2022/02/10 02:11:44;;;;;;;21.20;10.65;;;8.40;99.90;;;;;;5075123;28;20078;-54
2022/02/10 02:14:15;;;;;;;22.10;10.93;;;8.40;99.90;;;;;;5074501;28;20487;-60
2022/02/10 02:16:53;;;;;;;22.45;11.55;;;8.40;99.90;;;;;;5074764;28;20115;-58
2022/02/10 02:19:19;;;;;;;25.33;11.15;;;8.40;99.90;;;;;;5074531;28;20047;-60
2022/02/10 02:21:46;;;;;;;23.80;10.98;;;8.40;99.90;;;;;;5074673;28;20082;-58
2022/02/10 02:24:15;;;;;;;23.95;11.40;;;8.40;99.90;;;;;;5073829;28;20029;-60
2022/02/10 02:26:41;;;;;;;24.70;11.77;;;8.40;99.90;;;;;;5074192;28;20108;-57
2022/02/10 02:29:10;;;;;;;21.65;12.13;;;8.40;99.90;;;;;;5074250;28;20020;-59
2022/02/10 02:31:51;;;;;;;;;;;8.40;99.90;;;;;;5074937;28;20105;-58
2022/02/10 03:06:44;;;;;;;23.63;13.65;;;8.30;99.90;;;;;;4991611;28;20026;-59
2022/02/10 03:09:14;;;;;;;26.90;13.32;;;8.30;99.90;;;;;;4991508;28;20502;-61
2022/02/10 03:11:42;;;;;;;26.92;12.43;;;8.30;99.90;;;;;;5031556;28;20032;-59
2022/02/10 03:14:12;;;;;;;23.73;12.18;;;8.30;99.90;;;;;;5103292;23;20429;-64
2022/02/10 03:22:06;;;;;;;27.27;13.50;;;8.30;99.90;;;;;;5092603;28;20119;-64
2022/02/10 04:16:05;;;;;;;26.38;16.20;;;;;;;;;;5091340;28;20035;-67
2022/02/10 05:22:20;;;;;;;27.48;17.00;;;;;;;;;;5094747;28;20103;-66
2022/02/10 05:31:29;;;;;;;31.98;17.83;;;;;;;;;;5076249;28;20024;-65
2022/02/10 05:35:42;;;;;;;31.90;19.27;;;;;;;;;;5093477;28;20081;-65
2022/02/10 05:38:15;;;;;;;32.97;17.95;;;;;;;;;;5093949;28;20399;-66
2022/02/10 05:43:33;;;;;;;32.65;17.63;;;;;;;;;;5094514;28;20118;-65
2022/02/10 05:56:21;;;;;;;29.15;17.40;;;;;;;;;;5093669;28;20031;-65
2022/02/10 06:41:39;;;;;;;30.90;17.20;;;;;;;;;;5093204;28;20055;-66
2022/02/10 06:44:10;;;;;;;28.77;16.33;;;;;;;;;;5092738;28;20396;-65
2022/02/10 06:53:13;;;;;;;31.08;17.40;;;;;;;;;;5092430;28;20024;-64
2022/02/10 07:12:10;;;;;;;33.42;18.85;;;;;;;;;;5092374;28;20035;-65
2022/02/10 07:50:07;;;;;;;38.05;19.77;;;;;;;;;;5092171;28;19999;-66
2022/02/10 08:00:53;;;;;;;33.58;19.35;;;;;;;;;;5091040;28;20035;-66
2022/02/10 08:49:59;;;;;;;42.53;21.85;;;7.10;99.90;;;;;;5091367;28;20081;-68
2022/02/10 08:55:25;;;;;;;36.40;20.40;;;;;;;;;;5091086;28;20039;-68
2022/02/10 09:03:20;;;;;;;42.05;22.30;;;7.20;99.90;;;;;;5090796;28;20024;-65
2022/02/10 09:05:56;;;;;;;41.10;20.67;;;7.20;99.90;;;;;;5074484;28;20610;-67
2022/02/10 10:00:27;;;;;;;30.17;27.13;;;6.80;99.90;;;;;;5053945;28;20500;-59
2022/02/10 10:03:10;;;;;;;31.88;28.33;;;6.80;99.90;;;;;;5053135;28;20048;-60
2022/02/10 10:05:43;;;;;;;27.95;25.35;;;6.80;99.90;;;;;;5062339;28;20025;-54
2022/02/10 10:10:58;;;;;;;26.70;24.08;;;6.90;99.90;;;;;;5055260;28;20029;-58
2022/02/10 10:24:41;;;;;;;;;;;;;;;;;;;;;
2022/02/10 10:27:39;;;;;;;18.45;15.30;;;7.00;99.90;;;;;;5073810;28;20024;-61
2022/02/10 10:52:01;;;;;;;17.45;14.25;;;7.10;99.90;;;;;;5073694;28;20032;-60
2022/02/10 10:56:56;;;;;;;16.83;12.85;;;6.80;99.90;;;;;;5072788;28;20017;-60
2022/02/10 11:38:16;;;;;;;17.13;8.90;;;7.10;99.90;;;;;;5053128;28;20097;-63
2022/02/10 11:41:07;;;;;;;15.43;8.83;;;7.00;99.90;;;;;;5051016;28;20118;-62
2022/02/10 12:40:06;;;;;;;14.50;7.47;;;7.60;99.90;;;;;;5051843;28;20029;-62
2022/02/10 14:19:36;;;;;;;16.60;6.15;;;8.40;99.90;;;;;;5073968;28;20029;-61
2022/02/10 14:27:23;;;;;;;14.95;6.22;;;8.70;99.90;;;;;;5052141;28;20051;-62
2022/02/10 14:29:49;;;;;;;17.45;6.97;;;8.70;99.90;;;;;;5059918;28;20013;-62
2022/02/10 14:32:19;;;;;;;13.85;6.68;;;8.60;99.90;;;;;;5053510;28;20026;-63
2022/02/10 14:34:50;;;;;;;14.88;7.47;;;8.60;99.90;;;;;;5053343;28;20532;-61
2022/02/10 14:37:47;;;;;;;17.52;6.85;;;8.60;99.90;;;;;;5062278;28;20505;-63
2022/02/10 15:18:28;;;;;;;18.23;6.15;;;7.80;99.90;;;;;;5053080;28;20095;-62
2022/02/10 15:21:21;;;;;;;14.07;6.05;;;7.80;99.90;;;;;;5064275;28;20025;-63
2022/02/10 16:17:23;;;;;;;16.30;6.55;;;7.50;99.90;;;;;;5064726;28;20472;-62
2022/02/10 16:19:49;;;;;;;15.50;6.07;;;7.40;99.90;;;;;;5057533;28;20078;-63
2022/02/10 16:24:54;;;;;;;19.00;7.20;;;7.20;99.90;;;;;;5060532;28;20023;-63
2022/02/10 16:27:26;;;;;;;17.33;6.80;;;7.20;99.90;;;;;;5051818;28;20127;-63
2022/02/10 16:29:57;;;;;;;17.60;7.60;;;7.20;99.90;;;;;;5063644;28;20028;-63
2022/02/10 16:32:23;;;;;;;15.38;6.90;;;7.10;99.90;;;;;;5057956;28;20029;-61
2022/02/10 16:34:49;;;;;;;18.52;7.47;;;7.10;99.90;;;;;;5057701;28;20086;-63
2022/02/10 16:37:15;;;;;;;18.75;8.23;;;7.10;99.90;;;;;;5061567;28;20044;-61
2022/02/10 16:39:41;;;;;;;19.48;8.15;;;7.10;99.90;;;;;;5062947;28;20029;-60
2022/02/10 16:42:09;;;;;;;16.30;7.35;;;7.00;99.90;;;;;;5071486;28;20059;-58
2022/02/10 16:44:37;;;;;;;17.08;8.05;;;6.90;99.90;;;;;;5070562;28;20020;-64
2022/02/10 16:47:03;;;;;;;17.17;7.47;;;6.90;99.90;;;;;;5071299;28;20028;-56
2022/02/10 16:49:29;;;;;;;17.27;6.85;;;6.90;99.90;;;;;;5070833;28;20029;-61
2022/02/10 16:51:56;;;;;;;16.23;7.35;;;6.90;99.90;;;;;;5069576;28;20369;-59
2022/02/10 16:54:33;;;;;;;15.75;6.75;;;6.80;99.90;;;;;;5053281;28;20025;-60
2022/02/10 16:59:37;;;;;;;17.90;7.30;;;6.80;99.90;;;;;;5054480;28;20048;-61
2022/02/10 17:46:04;;;;;;;19.90;7.50;;;6.70;99.90;;;;;;5054231;28;20091;-60
2022/02/10 17:53:52;;;;;;;19.35;8.35;;;6.70;99.90;;;;;;5054641;28;20025;-62
2022/02/10 17:56:18;;;;;;;18.02;7.78;;;6.60;99.90;;;;;;5057787;28;20033;-62
2022/02/10 17:58:44;;;;;;;16.90;6.95;;;6.60;99.90;;;;;;5062842;28;20017;-62
2022/02/10 18:01:11;;;;;;;16.98;7.30;;;6.60;99.90;;;;;;5068136;28;20028;-63
2022/02/10 18:03:37;;;;;;;20.50;7.80;;;6.60;99.90;;;;;;5057818;28;20051;-60
2022/02/10 18:08:40;;;;;;;17.42;8.68;;;6.60;99.90;;;;;;5054255;28;20028;-63
2022/02/10 18:16:23;;;;;;;17.95;7.78;;;6.50;99.90;;;;;;5053696;28;20057;-62
2022/02/10 18:18:59;;;;;;;20.92;8.15;;;6.50;99.90;;;;;;5053668;28;20074;-62
2022/02/10 18:21:39;;;;;;;20.90;8.38;;;6.40;99.90;;;;;;5060264;28;20090;-62
2022/02/10 19:09:40;;;;;;;21.15;16.98;;;;;;;;;;5053089;28;20067;-66
2022/02/10 19:12:15;;;;;;;20.10;17.70;;;;;;;;;;5051184;28;20052;-65
2022/02/10 19:14:41;;;;;;;21.55;18.23;;;;;;;;;;5052052;28;20029;-65
2022/02/10 19:17:08;;;;;;;21.67;17.65;;;;;;;;;;5052502;28;20021;-66
2022/02/10 19:19:34;;;;;;;20.10;17.98;;;;;;;;;;5051049;28;20048;-64
2022/02/10 19:22:00;;;;;;;21.33;17.65;;;;;;;;;;5052322;28;20024;-64
2022/02/10 19:24:26;;;;;;;22.75;17.70;;;;;;;;;;5052197;28;20021;-65
2022/02/10 19:26:51;;;;;;;22.65;18.80;;;5.30;99.90;;;;;;5052301;28;20028;-66
2022/02/10 19:29:22;;;;;;;23.85;17.92;;;5.20;99.90;;;;;;5061228;28;20021;-66
2022/02/10 19:31:49;;;;;;;21.60;17.73;;;5.30;99.90;;;;;;5072118;28;20090;-66
2022/02/10 19:34:15;;;;;;;28.02;23.33;;;5.30;99.90;;;;;;5072439;28;20116;-66
2022/02/10 19:36:40;;;;;;;32.75;30.05;;;5.30;99.90;;;;;;5071570;28;20471;-66
2022/02/10 19:39:07;;;;;;;36.33;33.13;;;5.20;99.90;;;;;;5071427;28;20021;-63
2022/02/10 19:41:36;;;;;;;35.60;32.45;;;5.00;99.90;;;;;;5072819;28;20032;-63
2022/02/10 19:44:04;;;;;;;37.28;33.95;;;;;;;;;;5072858;28;20028;-64
2022/02/10 19:46:30;;;;;;;37.58;34.08;;;;;;;;;;5064219;28;20039;-63
2022/02/10 19:48:57;;;;;;;37.50;34.35;;;;;;;;;;5063310;28;20025;-62
2022/02/10 19:51:23;;;;;;;36.88;33.45;;;;;;;;;;5060967;28;20057;-62
2022/02/10 19:53:53;;;;;;;36.60;33.38;;;;;;;;;;5063853;28;20036;-61
2022/02/10 19:56:20;;;;;;;35.88;32.58;;;;;;;;;;5060167;28;20494;-62
2022/02/10 19:58:46;;;;;;;36.03;32.45;;;;;;;;;;5058959;28;20027;-62
2022/02/10 20:01:12;;;;;;;35.38;30.45;;;;;;;;;;5062257;28;20021;-61
2022/02/10 20:03:40;;;;;;;35.45;31.83;;;;;;;;;;5060805;28;20031;-62
2022/02/10 20:06:06;;;;;;;34.03;30.93;;;;;;;;;;5060327;28;20016;-63
2022/02/10 20:08:33;;;;;;;34.75;31.35;;;;;;;;;;5062513;28;20017;-62
2022/02/10 20:10:59;;;;;;;34.13;30.50;;;;;;;;;;5061785;28;20029;-64
2022/02/10 20:13:27;;;;;;;34.22;30.58;;;;;;;;;;5059578;28;20062;-62
2022/02/10 20:15:54;;;;;;;38.95;35.03;;;5.00;99.90;;;;;;5059260;28;20496;-61
2022/02/10 20:18:21;;;;;;;36.35;32.83;;;5.10;99.90;;;;;;5067037;28;20502;-61
2022/02/10 20:20:53;;;;;;;39.45;31.00;;;;;;;;;;5071929;28;20092;-63
2022/02/10 20:23:19;;;;;;;34.70;31.25;;;5.20;99.90;;;;;;5071806;28;20039;-64
2022/02/10 20:25:45;;;;;;;33.17;29.90;;;5.20;99.90;;;;;;5064546;28;20028;-64
2022/02/10 20:28:12;;;;;;;32.10;29.00;;;5.20;99.90;;;;;;5070919;28;20078;-66
2022/02/10 20:30:39;;;;;;;32.85;29.73;;;5.20;99.90;;;;;;5065442;28;20078;-67
2022/02/10 20:33:05;;;;;;;31.83;28.55;;;5.20;99.90;;;;;;5065740;28;20029;-65
2022/02/10 20:35:32;;;;;;;29.83;26.75;;;5.20;99.90;;;;;;5051685;28;20112;-69
2022/02/10 20:38:01;;;;;;;27.52;24.42;;;5.20;99.90;;;;;;5056885;28;20392;-61
2022/02/10 20:40:28;;;;;;;26.58;23.75;;;5.20;99.90;;;;;;5063039;28;20036;-63
2022/02/10 20:43:02;;;;;;;25.90;23.30;;;5.30;99.90;;;;;;5061088;28;20056;-62
2022/02/10 20:45:28;;;;;;;23.02;19.98;;;5.20;99.90;;;;;;5063938;28;20024;-61
2022/02/10 20:47:54;;;;;;;21.33;17.83;;;5.20;99.90;;;;;;5056374;28;20017;-58
2022/02/10 20:50:19;;;;;;;21.02;16.08;;;5.30;99.90;;;;;;5067956;28;20696;-62
2022/02/10 20:52:45;;;;;;;22.50;15.68;;;5.20;99.90;;;;;;5063680;28;20023;-62
2022/02/10 20:55:11;;;;;;;18.85;14.30;;;5.30;99.90;;;;;;5070759;28;20017;-58
2022/02/10 20:57:36;;;;;;;20.50;14.93;;;5.30;99.90;;;;;;5071059;28;20036;-62
2022/02/10 21:00:09;;;;;;;20.23;14.65;;;5.20;99.90;;;;;;5065827;28;20044;-61
2022/02/10 21:02:40;;;;;;;20.65;14.63;;;5.20;99.90;;;;;;5056297;28;20087;-60
2022/02/10 21:05:21;;;;;;;22.73;15.82;;;5.20;99.90;;;;;;5053558;28;20033;-61
2022/02/10 21:07:58;;;;;;;20.10;15.05;;;5.20;99.90;;;;;;5054415;28;20492;-62
2022/02/10 21:10:25;;;;;;;23.05;15.65;;;5.20;99.90;;;;;;5063611;28;20419;-61
2022/02/10 21:12:51;;;;;;;25.88;15.20;;;5.20;99.90;;;;;;5073817;28;20643;-62
2022/02/10 21:15:24;;;;;;;21.40;15.10;;;5.10;99.90;;;;;;5062839;28;20029;-62
2022/02/10 21:17:51;;;;;;;22.25;13.82;;;5.10;99.90;;;;;;5068723;28;20036;-62
2022/02/10 21:20:17;;;;;;;23.60;14.57;;;5.20;99.90;;;;;;5057876;28;20724;-61
2022/02/10 21:22:47;;;;;;;19.65;14.32;;;5.10;99.90;;;;;;5056563;28;20082;-62
2022/02/10 21:25:23;;;;;;;20.02;12.93;;;5.10;99.90;;;;;;5061712;28;20013;-61
2022/02/10 21:27:50;;;;;;;19.88;11.73;;;5.10;99.90;;;;;;5052508;28;20088;-62
2022/02/10 21:30:19;;;;;;;18.10;10.88;;;5.10;99.90;;;;;;5053445;28;20021;-61
2022/02/10 21:32:51;;;;;;;18.42;10.60;;;5.10;99.90;;;;;;5067490;28;20020;-61
2022/02/10 21:35:30;;;;;;;19.63;10.88;;;5.20;99.90;;;;;;5074523;28;20028;-58
2022/02/10 21:40:30;;;;;;;20.45;10.88;;;5.20;99.90;;;;;;5074546;28;20029;-62
2022/02/10 21:47:20;;;;;;;17.77;11.45;;;5.10;99.90;;;;;;5073823;28;20093;-59
2022/02/10 21:54:34;;;;;;;18.55;8.80;;;5.00;99.90;;;;;;5054975;28;20147;-60
2022/02/10 22:06:07;;;;;;;17.52;8.75;;;5.00;99.90;;;;;;5054031;28;20329;-60
2022/02/10 22:21:03;;;;;;;16.17;7.65;;;4.90;99.90;;;;;;5055386;28;20086;-61
2022/02/10 22:23:31;;;;;;;20.55;8.25;;;4.90;99.90;;;;;;5069639;28;20020;-63
2022/02/10 22:26:03;;;;;;;21.88;8.82;;;4.90;99.90;;;;;;5069455;28;20404;-59
2022/02/10 22:33:42;;;;;;;22.75;9.02;;;4.90;99.90;;;;;;5053618;28;20100;-61
2022/02/10 22:36:11;;;;;;;18.20;9.55;;;4.90;99.90;;;;;;5058941;28;20032;-59
2022/02/10 22:38:37;;;;;;;16.90;8.38;;;4.90;99.90;;;;;;5062846;28;20028;-61
2022/02/10 22:41:13;;;;;;;19.15;8.93;;;4.90;99.90;;;;;;5062255;28;20021;-63
2022/02/10 22:43:49;;;;;;;21.55;10.07;;;4.90;99.90;;;;;;5062770;28;20025;-62
2022/02/10 22:46:16;;;;;;;18.25;8.48;;;;;;;;;;5062432;28;20025;-61
2022/02/10 22:48:44;;;;;;;17.98;8.20;;;;;;;;;;5062269;28;20070;-61
2022/02/10 22:51:10;;;;;;;19.23;8.25;;;;;;;;;;5063688;28;20388;-55
2022/02/10 22:53:36;;;;;;;15.48;7.88;;;;;;;;;;5062415;28;20087;-62
2022/02/10 22:56:03;;;;;;;21.40;7.82;;;;;;;;;;5061894;28;20027;-61
2022/02/10 22:58:29;;;;;;;16.80;8.88;;;;;;;;;;5059371;28;20116;-59
2022/02/10 23:00:55;;;;;;;17.58;8.63;;;4.80;99.90;;;;;;5064571;28;20056;-59
2022/02/10 23:03:23;;;;;;;17.02;8.00;;;4.80;99.90;;;;;;5067571;28;20440;-57
2022/02/10 23:05:50;;;;;;;19.30;8.07;;;4.70;99.90;;;;;;5071387;28;20048;-59
2022/02/10 23:08:17;;;;;;;16.10;7.40;;;4.70;99.90;;;;;;5072784;28;20025;-61
2022/02/10 23:10:50;;;;;;;19.33;7.35;;;4.70;99.90;;;;;;5069076;28;20021;-59
2022/02/10 23:13:17;;;;;;;16.98;8.30;;;4.70;99.90;;;;;;5069730;28;20029;-62
2022/02/10 23:15:44;;;;;;;17.58;8.15;;;4.60;99.90;;;;;;5071126;28;20508;-59
2022/02/10 23:18:15;;;;;;;18.38;8.50;;;4.60;99.90;;;;;;5071477;28;20036;-63
2022/02/10 23:20:42;;;;;;;18.58;9.18;;;4.60;99.90;;;;;;5072618;28;20097;-62
2022/02/10 23:23:09;;;;;;;19.52;8.80;;;4.60;99.90;;;;;;5072402;28;20029;-54
2022/02/10 23:25:37;;;;;;;23.10;9.52;;;4.60;99.90;;;;;;5072057;28;20499;-61
2022/02/10 23:28:04;;;;;;;19.60;9.27;;;4.50;99.90;;;;;;5072303;28;20119;-61
2022/02/10 23:30:30;;;;;;;19.35;10.45;;;4.60;99.90;;;;;;5072451;28;20025;-59
2022/02/10 23:33:02;;;;;;;20.27;10.82;;;4.50;99.90;;;;;;5071098;28;20039;-62
2022/02/10 23:37:58;;;;;;;21.85;12.00;;;4.50;99.90;;;;;;5072420;28;20024;-60
2022/02/10 23:40:29;;;;;;;20.35;10.52;;;4.50;99.90;;;;;;5070940;28;20027;-62
2022/02/10 23:42:55;;;;;;;22.95;11.65;;;4.50;99.90;;;;;;5070871;28;20078;-58
2022/02/10 23:45:25;;;;;;;23.40;10.77;;;;;;;;;;5071734;28;20031;-61
2022/02/10 23:47:52;;;;;;;21.63;10.23;;;;;;;;;;5072273;28;20022;-62
2022/02/10 23:50:24;;;;;;;19.92;9.63;;;4.40;99.90;;;;;;5072162;28;20074;-62
2022/02/10 23:52:53;;;;;;;20.52;8.82;;;4.40;99.90;;;;;;5070868;28;20389;-62
2022/02/10 23:55:27;;;;;;;20.75;8.98;;;4.40;99.90;;;;;;5071603;28;20028;-60
2022/02/10 23:57:57;;;;;;;19.00;8.38;;;4.40;99.90;;;;;;5070803;28;20078;-60
